Colfax, WV (26566)

10:32 AM EST on February 27, 2017 (GMT -0500)
Pleasant Valley Station | | Change Station

Elev 1047 ft 39.44 °N, 80.17 °W | Updated 6 minutes ago

Overcast
Overcast
44.6 °F
Feels Like 45 °F
N
0.0
Wind Variable Wind from SW
Gusts 7.0 mph

Today
High -- | Low -- °F
--% Chance of Precip.
Yesterday
High -- | Low -- °F
Precip. -- in
Pressure 30.36 in
Visibility 10.0 miles
Clouds Mostly Cloudy 2300 ft
Mostly Cloudy 3900 ft
Overcast 4600 ft
Windchill 45 °F
Dew Point 38 °F
Humidity 77%
Rainfall 0.00 in
Snow Depth Not available.
6:55 AM 6:10 PM
New Moon, 1% visible
METAR KCKB 271453Z 21009KT 10SM BKN023 BKN039 OVC046 07/01 A3035 RMK AO2 SLP280 T00670011 50014
Pressure 30.36 in
Visibility 10.0 miles
Clouds Mostly Cloudy 2300 ft
Mostly Cloudy 3900 ft
Overcast 4600 ft
Windchill 45 °F
Dew Point 38 °F
Humidity 77%
Rainfall 0.00 in
Snow Depth Not available.
6:55 AM 6:10 PM
New Moon, 1% visible
METAR KCKB 271453Z 21009KT 10SM BKN023 BKN039 OVC046 07/01 A3035 RMK AO2 SLP280 T00670011 50014

Get Your Daily Forecast Email!

Thanks for signing up!

Be on the lookout for a verification email in your inbox.

You'll start receiving the daily forecast at 8 AM.

×

10-Day Weather Forecast

Almanac

Astronomy

Feb. 27, 2017 Rise Set
Actual Time
Civil Twilight
Nautical Twilight
Astronomical Twilight
Moon
Length of Visible Light
Length of Day
Tomorrow will be .
, % of the Moon is Illuminated

Today's Extremes

State Highs State Lows

Community

WunderPhotos

Upload Photos

1,962,540 photos uploaded!

WunderBlog® & News

Nearby

Air Quality

  Air Quality AQ Index Pollutant
Not available.

Snow Depth

Station Depth Elevation

Earthquake Activity

City Distance Mag. Time & Date
Minimum magnitude displayed is 2.5.

Coastal Water Temperatures

Place Temperature

Stations

Nearby Weather Stations

Station Location Temp. Windchill Dew Point Humidity Wind Precip. Elev Updated Type
                   

Watches & Warnings

There are currently no watches in effect.